Columbus City, Iowa
Current Conditions -  °F | °C
As of 8:10 PM on Sunday 25 Jan 2015 (Local Time) from KMUT Reporting Station
Overcast Overcast  
Wind Chill: 12°   Ceiling: 3900
Heat Index: 25°   Visibility: 10mi
Dew Point: 19°   Wind: 15mph
Humidity: 80%   Direction: 10°N
Pressure: 30.07"   Gusts: NA
Location:  41.26°N, 91.37°W
Report Text: KMUT 260210Z AUTO 01013KT 10SM OVC039 M04/M07 A3007 RMK AO2
Loading
Personal Weather Stations






























Interactive Weather Map New forecast layout! Learn more

10-Day Weather Forecast

Advertisements
Track Severe Weather on mobile